Currently 47°F in Hemet, California, USA
47°F
50°F / 47°F
calm
0.07"
Tuesday, January 21, 2020 12:56 AM PST

Hemet, California Weather Summary
Last 36 Hours

Temperature Winds Hourly Humidity Dewpoint
Time Report Norm Report Norm Max Gusts Precip. Rpt. Norm Rpt. Norm Pressure
1Tue 12:56 AM  47.5°F  50°F  calm  1 mph  5 mph  0.07"  77%  49%  40°F  31°F  30.14"
3Tue 12:53 AM  47.5°F  50°F  calm  1 mph  5 mph  ----  76%  49%  40°F  31°F  30.15"
2Tue 12:00 AM  49.6°F  50°F  calm  1 mph  none  0.00"  63%  49%  37°F  31°F  30.14"
Mon 11:00 PM  52.0°F  50°F  calm  1 mph  none  0.00"  54%  49%  35°F  31°F  30.11"
Mon 10:00 PM  52.2°F  51°F  calm  1 mph  none  0.00"  48%  49%  32°F  32°F  30.09"
Mon 09:00 PM  50.4°F  52°F  calm  1 mph  none  0.00"  53%  49%  33°F  32°F  30.09"
Mon 08:00 PM  51.6°F  52°F  calm  1 mph  none  0.00"  48%  48%  32°F  32°F  30.09"
Mon 07:00 PM  51.3°F  54°F  calm  1 mph  none  0.00"  53%  47%  34°F  33°F  30.11"
Mon 06:00 PM  52.9°F  56°F  calm  1 mph  none  0.00"  50%  45%  34°F  34°F  30.08"
Mon 05:00 PM  54.7°F  60°F  calm  1 mph  none  0.00"  46%  40%  33°F  35°F  30.09"
Mon 04:00 PM  56.7°F  64°F  calm  1 mph  7 mph  0.00"  41%  36%  32°F  35°F  30.08"
Mon 03:00 PM  56.8°F  65°F  calm  1 mph  8 mph  0.00"  43%  33%  34°F  34°F  30.09"
Mon 02:00 PM  59.2°F  65°F  3 mph W  2 mph  8 mph  0.00"  36%  34%  31°F  34°F  30.05"
Mon 01:00 PM  60.4°F  63°F  calm  2 mph  none  0.00"  35%  35%  32°F  34°F  30.03"
Mon 12:00 PM  60.4°F  62°F  calm  1 mph  9 mph  0.00"  34%  37%  31°F  34°F  30.10"
Mon 11:00 AM  62.8°F  60°F  calm  1 mph  none  0.00"  32%  41%  31°F  35°F  30.10"
Mon 10:00 AM  62.1°F  57°F  calm  1 mph  none  0.00"  31%  44%  30°F  35°F  30.12"
Mon 09:00 AM  58.1°F  55°F  calm  calm  none  0.00"  31%  45%  26°F  33°F  30.12"
Mon 08:00 AM  54.5°F  50°F  calm  calm  none  0.00"  33%  48%  25°F  30°F  30.11"
Mon 07:00 AM  54.7°F  48°F  calm  1 mph  none  0.00"  28%  48%  21°F  29°F  30.10"
Mon 06:00 AM  54.1°F  48°F  calm  1 mph  none  0.00"  30%  48%  22°F  29°F  30.06"
Mon 05:00 AM  54.7°F  48°F  calm  1 mph  none  0.00"  27%  48%  20°F  29°F  30.04"
Mon 04:00 AM  55.2°F  49°F  calm  1 mph  none  0.00"  25%  48%  18°F  29°F  30.08"
Mon 03:00 AM  54.9°F  49°F  calm  1 mph  none  0.00"  28%  48%  21°F  29°F  30.08"
Mon 02:00 AM  54.5°F  49°F  calm  1 mph  none  0.00"  29%  48%  21°F  30°F  30.08"
Mon 01:00 AM  57.2°F  50°F  calm  1 mph  none  0.00"  26%  48%  21°F  30°F  30.08"
Mon 12:00 AM  57.2°F  50°F  calm  1 mph  none  0.00"  23%  49%  18°F  30°F  30.08"
Sun 11:00 PM  57.7°F  50°F  calm  1 mph  none  0.00"  23%  48%  19°F  31°F  30.11"
Sun 10:03 PM  59.2°F  51°F  calm  1 mph  none  0.00"  22%  48%  19°F  31°F  30.12"
Sun 09:00 PM  61.0°F  51°F  calm  1 mph  5 mph  0.00"  23%  47%  21°F  31°F  30.12"
Sun 08:00 PM  59.5°F  52°F  calm  1 mph  none  0.00"  20%  47%  17°F  32°F  30.10"
Sun 07:00 PM  59.5°F  53°F  calm  1 mph  none  0.00"  25%  46%  22°F  32°F  30.11"
Sun 06:00 PM  63.0°F  55°F  calm  1 mph  3 mph  0.00"  21%  44%  21°F  33°F  30.12"
Sun 05:00 PM  65.8°F  60°F  calm  1 mph  none  0.00"  17%  40%  18°F  34°F  30.10"
Sun 04:00 PM  68.4°F  64°F  calm  1 mph  none  0.00"  23%  35%  28°F  34°F  30.09"
Sun 03:00 PM  71.1°F  65°F  calm  2 mph  8 mph  0.00"  19%  33%  25°F  33°F  30.10"
Sun 02:00 PM  76.6°F  65°F  calm  2 mph  6 mph  0.00"  13%  33%  20°F  34°F  30.09"
Sun 01:00 PM  74.1°F  63°F  calm  1 mph  5 mph  0.00"  15%  34%  22°F  34°F  30.10"
Sun 12:00 PM  70.0°F  62°F  3 mph W  1 mph  3 mph  0.00"  20%  37%  25°F  34°F  30.14"

  1. Current weather data. No green row appears if the current weather data is also the high or low for the current day.
  2. High temperature for the current day.
  3. Low temperature for the current day.

The Hemet weather pages are a service of WeatherCurrents. Hemet, California is located in the San Jacinto Valley, in western Riverside County, at the foot of the San Jacinto mountains.
Copyright ©2020  WeatherCurrents. All rights reserved. - Submit questions and comments - Privacy Policy

This page automatically refreshes every 10 minutes.